sensor_id;sensor_type;location;lat;lon;timestamp;temperature;humidity
53643;DHT22;39546;45.534;12.048;2024-01-15T00:00:03;3.90;85.00
53643;DHT22;39546;45.534;12.048;2024-01-15T00:06:11;4.00;85.00
53643;DHT22;39546;45.534;12.048;2024-01-15T00:12:14;4.00;85.00
53643;DHT22;39546;45.534;12.048;2024-01-15T00:18:15;3.90;85.00
53643;DHT22;39546;45.534;12.048;2024-01-15T00:24:17;3.90;85.00
53643;DHT22;39546;45.534;12.048;2024-01-15T00:30:19;3.90;85.10
53643;DHT22;39546;45.534;12.048;2024-01-15T00:36:20;3.90;85.30
53643;DHT22;39546;45.534;12.048;2024-01-15T00:42:22;3.90;85.20
53643;DHT22;39546;45.534;12.048;2024-01-15T00:48:23;4.00;85.20
53643;DHT22;39546;45.534;12.048;2024-01-15T00:54:26;4.00;85.20
53643;DHT22;39546;45.534;12.048;2024-01-15T01:00:27;4.00;85.20
53643;DHT22;39546;45.534;12.048;2024-01-15T01:06:29;4.00;85.20
53643;DHT22;39546;45.534;12.048;2024-01-15T01:12:30;4.00;85.10
53643;DHT22;39546;45.534;12.048;2024-01-15T01:18:32;3.90;85.10
53643;DHT22;39546;45.534;12.048;2024-01-15T01:24:33;3.90;85.10
53643;DHT22;39546;45.534;12.048;2024-01-15T01:30:35;3.90;85.20
53643;DHT22;39546;45.534;12.048;2024-01-15T01:36:36;3.90;85.30
53643;DHT22;39546;45.534;12.048;2024-01-15T01:42:38;3.90;85.10
53643;DHT22;39546;45.534;12.048;2024-01-15T01:48:39;3.90;85.20
53643;DHT22;39546;45.534;12.048;2024-01-15T01:54:41;4.00;85.20
53643;DHT22;39546;45.534;12.048;2024-01-15T02:00:43;4.10;85.20
53643;DHT22;39546;45.534;12.048;2024-01-15T02:06:45;4.10;85.20
53643;DHT22;39546;45.534;12.048;2024-01-15T02:12:46;4.20;85.20
53643;DHT22;39546;45.534;12.048;2024-01-15T02:18:49;4.20;85.10
53643;DHT22;39546;45.534;12.048;2024-01-15T02:24:51;4.10;85.10
53643;DHT22;39546;45.534;12.048;2024-01-15T02:30:52;4.20;85.50
53643;DHT22;39546;45.534;12.048;2024-01-15T02:36:54;4.30;85.30
53643;DHT22;39546;45.534;12.048;2024-01-15T02:42:55;4.20;85.10
53643;DHT22;39546;45.534;12.048;2024-01-15T02:48:57;4.20;85.50
53643;DHT22;39546;45.534;12.048;2024-01-15T02:54:59;4.20;85.30
53643;DHT22;39546;45.534;12.048;2024-01-15T03:01:00;4.40;85.60
53643;DHT22;39546;45.534;12.048;2024-01-15T03:07:02;4.70;85.40
53643;DHT22;39546;45.534;12.048;2024-01-15T03:13:03;4.90;85.10
53643;DHT22;39546;45.534;12.048;2024-01-15T03:19:05;5.00;85.10
53643;DHT22;39546;45.534;12.048;2024-01-15T03:25:07;5.10;84.80
53643;DHT22;39546;45.534;12.048;2024-01-15T03:31:09;4.90;84.70
53643;DHT22;39546;45.534;12.048;2024-01-15T03:37:10;4.90;84.90
53643;DHT22;39546;45.534;12.048;2024-01-15T03:43:12;4.70;84.60
53643;DHT22;39546;45.534;12.048;2024-01-15T03:49:13;4.40;84.90
53643;DHT22;39546;45.534;12.048;2024-01-15T03:55:15;4.20;85.20
53643;DHT22;39546;45.534;12.048;2024-01-15T04:01:16;4.40;85.40
53643;DHT22;39546;45.534;12.048;2024-01-15T04:07:18;4.80;85.40
53643;DHT22;39546;45.534;12.048;2024-01-15T04:13:20;4.90;84.70
53643;DHT22;39546;45.534;12.048;2024-01-15T04:19:22;4.80;85.10
53643;DHT22;39546;45.534;12.048;2024-01-15T04:25:23;5.00;84.70
53643;DHT22;39546;45.534;12.048;2024-01-15T04:31:25;5.20;84.60
53643;DHT22;39546;45.534;12.048;2024-01-15T04:37:28;5.10;84.20
53643;DHT22;39546;45.534;12.048;2024-01-15T04:43:29;5.00;84.60
53643;DHT22;39546;45.534;12.048;2024-01-15T04:49:31;5.10;84.30
53643;DHT22;39546;45.534;12.048;2024-01-15T04:55:33;5.30;84.00
53643;DHT22;39546;45.534;12.048;2024-01-15T05:01:35;5.40;83.70
53643;DHT22;39546;45.534;12.048;2024-01-15T05:07:37;5.50;83.40
53643;DHT22;39546;45.534;12.048;2024-01-15T05:13:38;5.00;83.30
53643;DHT22;39546;45.534;12.048;2024-01-15T05:19:40;4.70;84.20
53643;DHT22;39546;45.534;12.048;2024-01-15T05:25:41;4.80;84.20
53643;DHT22;39546;45.534;12.048;2024-01-15T05:31:44;5.10;83.80
53643;DHT22;39546;45.534;12.048;2024-01-15T05:37:47;5.20;83.30
53643;DHT22;39546;45.534;12.048;2024-01-15T05:43:54;5.30;82.90
53643;DHT22;39546;45.534;12.048;2024-01-15T05:49:58;5.30;82.80
53643;DHT22;39546;45.534;12.048;2024-01-15T05:56:00;5.20;82.40
53643;DHT22;39546;45.534;12.048;2024-01-15T06:02:04;4.70;82.80
53643;DHT22;39546;45.534;12.048;2024-01-15T06:08:07;4.60;83.60
53643;DHT22;39546;45.534;12.048;2024-01-15T06:14:13;4.70;83.20
53643;DHT22;39546;45.534;12.048;2024-01-15T06:20:15;4.90;82.90
53643;DHT22;39546;45.534;12.048;2024-01-15T06:26:16;4.90;82.30
53643;DHT22;39546;45.534;12.048;2024-01-15T06:32:18;4.80;82.90
53643;DHT22;39546;45.534;12.048;2024-01-15T06:38:21;5.00;82.70
53643;DHT22;39546;45.534;12.048;2024-01-15T06:44:23;4.80;82.80
53643;DHT22;39546;45.534;12.048;2024-01-15T06:50:25;4.70;82.50
53643;DHT22;39546;45.534;12.048;2024-01-15T06:56:27;4.40;83.20
53643;DHT22;39546;45.534;12.048;2024-01-15T07:02:28;4.50;83.10
53643;DHT22;39546;45.534;12.048;2024-01-15T07:08:30;4.40;83.10
53643;DHT22;39546;45.534;12.048;2024-01-15T07:14:32;4.30;83.40
53643;DHT22;39546;45.534;12.048;2024-01-15T07:20:34;4.20;83.60
53643;DHT22;39546;45.534;12.048;2024-01-15T07:26:37;4.50;83.90
53643;DHT22;39546;45.534;12.048;2024-01-15T07:32:40;4.50;83.60
53643;DHT22;39546;45.534;12.048;2024-01-15T07:38:43;4.80;84.00
53643;DHT22;39546;45.534;12.048;2024-01-15T07:44:47;4.80;83.20
53643;DHT22;39546;45.534;12.048;2024-01-15T07:50:50;4.70;83.90
53643;DHT22;39546;45.534;12.048;2024-01-15T07:57:00;4.90;83.70
53643;DHT22;39546;45.534;12.048;2024-01-15T08:03:02;5.10;83.70
53643;DHT22;39546;45.534;12.048;2024-01-15T08:09:05;5.00;83.50
53643;DHT22;39546;45.534;12.048;2024-01-15T08:15:10;4.60;83.70
53643;DHT22;39546;45.534;12.048;2024-01-15T08:21:12;4.40;83.80
53643;DHT22;39546;45.534;12.048;2024-01-15T08:27:14;4.20;84.10
53643;DHT22;39546;45.534;12.048;2024-01-15T08:33:15;4.30;84.50
53643;DHT22;39546;45.534;12.048;2024-01-15T08:39:18;4.20;84.30
53643;DHT22;39546;45.534;12.048;2024-01-15T08:45:22;4.20;84.30
53643;DHT22;39546;45.534;12.048;2024-01-15T08:51:26;4.30;84.70
53643;DHT22;39546;45.534;12.048;2024-01-15T08:57:30;4.60;84.80
53643;DHT22;39546;45.534;12.048;2024-01-15T09:03:33;4.60;84.50
53643;DHT22;39546;45.534;12.048;2024-01-15T09:09:36;4.60;84.70
53643;DHT22;39546;45.534;12.048;2024-01-15T09:15:38;4.80;85.00
53643;DHT22;39546;45.534;12.048;2024-01-15T09:21:40;4.90;84.20
53643;DHT22;39546;45.534;12.048;2024-01-15T09:27:42;4.70;84.40
53643;DHT22;39546;45.534;12.048;2024-01-15T09:33:44;5.00;84.60
53643;DHT22;39546;45.534;12.048;2024-01-15T09:39:45;5.00;84.80
53643;DHT22;39546;45.534;12.048;2024-01-15T09:45:49;5.10;84.60
53643;DHT22;39546;45.534;12.048;2024-01-15T09:51:51;5.20;84.70
53643;DHT22;39546;45.534;12.048;2024-01-15T09:57:54;5.40;85.20
53643;DHT22;39546;45.534;12.048;2024-01-15T10:03:59;5.40;84.20
53643;DHT22;39546;45.534;12.048;2024-01-15T10:10:08;5.40;84.80
53643;DHT22;39546;45.534;12.048;2024-01-15T10:16:10;5.40;84.70
53643;DHT22;39546;45.534;12.048;2024-01-15T10:22:14;5.30;84.50
53643;DHT22;39546;45.534;12.048;2024-01-15T10:28:19;5.30;83.90
53643;DHT22;39546;45.534;12.048;2024-01-15T10:34:21;5.30;84.10
53643;DHT22;39546;45.534;12.048;2024-01-15T10:40:23;5.40;84.40
53643;DHT22;39546;45.534;12.048;2024-01-15T10:46:25;5.50;84.10
53643;DHT22;39546;45.534;12.048;2024-01-15T10:52:28;5.60;84.20
53643;DHT22;39546;45.534;12.048;2024-01-15T10:58:33;5.80;84.40
53643;DHT22;39546;45.534;12.048;2024-01-15T11:04:36;6.10;84.80
53643;DHT22;39546;45.534;12.048;2024-01-15T11:17:04;6.40;84.40
53643;DHT22;39546;45.534;12.048;2024-01-15T11:23:06;6.20;84.00
53643;DHT22;39546;45.534;12.048;2024-01-15T11:35:48;6.30;84.00
53643;DHT22;39546;45.534;12.048;2024-01-15T11:41:50;6.20;83.60
53643;DHT22;39546;45.534;12.048;2024-01-15T11:54:14;6.30;83.90
53643;DHT22;39546;45.534;12.048;2024-01-15T12:00:17;6.50;84.30
53643;DHT22;39546;45.534;12.048;2024-01-15T12:06:18;6.50;83.90
53643;DHT22;39546;45.534;12.048;2024-01-15T12:12:59;6.50;83.70
53643;DHT22;39546;45.534;12.048;2024-01-15T12:19:01;6.30;83.80
53643;DHT22;39546;45.534;12.048;2024-01-15T12:25:03;6.40;84.90
53643;DHT22;39546;45.534;12.048;2024-01-15T12:31:05;6.90;84.20
53643;DHT22;39546;45.534;12.048;2024-01-15T12:37:07;7.20;84.00
53643;DHT22;39546;45.534;12.048;2024-01-15T12:43:10;7.20;83.80
53643;DHT22;39546;45.534;12.048;2024-01-15T12:49:13;7.40;83.90
53643;DHT22;39546;45.534;12.048;2024-01-15T12:55:15;7.40;84.00
53643;DHT22;39546;45.534;12.048;2024-01-15T13:01:17;7.60;84.50
53643;DHT22;39546;45.534;12.048;2024-01-15T13:07:18;7.70;83.60
53643;DHT22;39546;45.534;12.048;2024-01-15T13:13:39;7.70;84.10
53643;DHT22;39546;45.534;12.048;2024-01-15T13:19:40;7.80;83.60
53643;DHT22;39546;45.534;12.048;2024-01-15T13:25:42;7.70;82.40
53643;DHT22;39546;45.534;12.048;2024-01-15T13:31:45;7.70;83.30
53643;DHT22;39546;45.534;12.048;2024-01-15T13:37:47;7.60;83.00
53643;DHT22;39546;45.534;12.048;2024-01-15T13:43:49;7.60;83.10
53643;DHT22;39546;45.534;12.048;2024-01-15T13:50:10;8.00;83.80
53643;DHT22;39546;45.534;12.048;2024-01-15T13:56:12;8.10;83.60
53643;DHT22;39546;45.534;12.048;2024-01-15T14:02:14;8.30;83.60
53643;DHT22;39546;45.534;12.048;2024-01-15T14:08:16;8.30;84.00
53643;DHT22;39546;45.534;12.048;2024-01-15T14:14:27;8.40;84.30
53643;DHT22;39546;45.534;12.048;2024-01-15T14:20:29;8.40;84.00
53643;DHT22;39546;45.534;12.048;2024-01-15T14:26:30;8.50;84.60
53643;DHT22;39546;45.534;12.048;2024-01-15T14:32:33;8.90;84.10
53643;DHT22;39546;45.534;12.048;2024-01-15T14:38:35;9.10;84.70
53643;DHT22;39546;45.534;12.048;2024-01-15T14:44:36;9.20;84.50
53643;DHT22;39546;45.534;12.048;2024-01-15T14:50:40;9.30;84.50
53643;DHT22;39546;45.534;12.048;2024-01-15T14:56:42;9.10;84.70
53643;DHT22;39546;45.534;12.048;2024-01-15T15:02:46;8.90;84.90
53643;DHT22;39546;45.534;12.048;2024-01-15T15:08:49;8.80;84.70
53643;DHT22;39546;45.534;12.048;2024-01-15T15:14:51;8.50;84.60
53643;DHT22;39546;45.534;12.048;2024-01-15T15:20:54;8.50;85.70
53643;DHT22;39546;45.534;12.048;2024-01-15T15:26:56;8.90;85.30
53643;DHT22;39546;45.534;12.048;2024-01-15T15:32:58;8.90;84.90
53643;DHT22;39546;45.534;12.048;2024-01-15T15:38:59;8.80;85.30
53643;DHT22;39546;45.534;12.048;2024-01-15T15:45:04;8.80;85.10
53643;DHT22;39546;45.534;12.048;2024-01-15T15:51:10;9.00;84.80
53643;DHT22;39546;45.534;12.048;2024-01-15T15:57:12;9.00;84.50
53643;DHT22;39546;45.534;12.048;2024-01-15T16:03:14;8.90;84.00
53643;DHT22;39546;45.534;12.048;2024-01-15T16:09:16;8.80;84.10
53643;DHT22;39546;45.534;12.048;2024-01-15T16:15:19;8.70;83.60
53643;DHT22;39546;45.534;12.048;2024-01-15T16:21:21;8.70;83.60
53643;DHT22;39546;45.534;12.048;2024-01-15T16:27:23;8.70;83.30
53643;DHT22;39546;45.534;12.048;2024-01-15T16:33:25;8.70;82.80
53643;DHT22;39546;45.534;12.048;2024-01-15T16:39:26;8.70;82.60
53643;DHT22;39546;45.534;12.048;2024-01-15T16:45:28;8.70;82.50
53643;DHT22;39546;45.534;12.048;2024-01-15T16:51:30;8.70;82.40
53643;DHT22;39546;45.534;12.048;2024-01-15T16:57:32;8.40;82.20
53643;DHT22;39546;45.534;12.048;2024-01-15T17:03:33;8.00;82.80
53643;DHT22;39546;45.534;12.048;2024-01-15T17:09:39;7.90;82.90
53643;DHT22;39546;45.534;12.048;2024-01-15T17:15:40;7.90;82.70
53643;DHT22;39546;45.534;12.048;2024-01-15T17:22:06;7.80;82.60
53643;DHT22;39546;45.534;12.048;2024-01-15T17:28:08;7.70;82.70
53643;DHT22;39546;45.534;12.048;2024-01-15T17:34:09;7.80;82.40
53643;DHT22;39546;45.534;12.048;2024-01-15T17:40:12;7.80;81.90
53643;DHT22;39546;45.534;12.048;2024-01-15T17:46:13;8.00;82.00
53643;DHT22;39546;45.534;12.048;2024-01-15T17:52:15;7.90;82.20
53643;DHT22;39546;45.534;12.048;2024-01-15T17:58:18;7.80;82.00
53643;DHT22;39546;45.534;12.048;2024-01-15T18:04:21;7.70;81.80
53643;DHT22;39546;45.534;12.048;2024-01-15T18:10:23;7.70;81.40
53643;DHT22;39546;45.534;12.048;2024-01-15T18:16:25;7.60;81.20
53643;DHT22;39546;45.534;12.048;2024-01-15T18:22:26;7.50;81.30
53643;DHT22;39546;45.534;12.048;2024-01-15T18:28:28;7.50;81.50
53643;DHT22;39546;45.534;12.048;2024-01-15T18:34:29;7.30;81.70
53643;DHT22;39546;45.534;12.048;2024-01-15T18:40:31;7.40;81.90
53643;DHT22;39546;45.534;12.048;2024-01-15T18:46:36;7.40;81.50
53643;DHT22;39546;45.534;12.048;2024-01-15T18:52:38;7.20;81.20
53643;DHT22;39546;45.534;12.048;2024-01-15T18:58:42;7.20;80.90
53643;DHT22;39546;45.534;12.048;2024-01-15T19:04:45;7.20;80.70
53643;DHT22;39546;45.534;12.048;2024-01-15T19:10:46;6.90;81.20
53643;DHT22;39546;45.534;12.048;2024-01-15T19:16:49;7.00;82.00
53643;DHT22;39546;45.534;12.048;2024-01-15T19:22:51;7.20;82.00
53643;DHT22;39546;45.534;12.048;2024-01-15T19:28:53;7.10;81.50
53643;DHT22;39546;45.534;12.048;2024-01-15T19:34:54;7.10;81.10
53643;DHT22;39546;45.534;12.048;2024-01-15T19:40:56;7.10;80.90
53643;DHT22;39546;45.534;12.048;2024-01-15T19:46:57;6.90;80.60
53643;DHT22;39546;45.534;12.048;2024-01-15T19:52:59;6.90;81.00
53643;DHT22;39546;45.534;12.048;2024-01-15T19:59:01;7.00;81.90
53643;DHT22;39546;45.534;12.048;2024-01-15T20:05:03;6.90;81.60
53643;DHT22;39546;45.534;12.048;2024-01-15T20:11:07;6.70;81.40
53643;DHT22;39546;45.534;12.048;2024-01-15T20:17:09;6.70;81.20
53643;DHT22;39546;45.534;12.048;2024-01-15T20:23:11;6.70;80.90
53643;DHT22;39546;45.534;12.048;2024-01-15T20:29:12;6.70;80.70
53643;DHT22;39546;45.534;12.048;2024-01-15T20:35:14;6.70;80.90
53643;DHT22;39546;45.534;12.048;2024-01-15T20:41:16;6.40;80.70
53643;DHT22;39546;45.534;12.048;2024-01-15T20:47:18;6.20;81.30
53643;DHT22;39546;45.534;12.048;2024-01-15T20:53:20;6.30;81.00
53643;DHT22;39546;45.534;12.048;2024-01-15T20:59:22;5.90;80.80
53643;DHT22;39546;45.534;12.048;2024-01-15T21:05:24;5.50;81.80
53643;DHT22;39546;45.534;12.048;2024-01-15T21:11:26;5.70;81.80
53643;DHT22;39546;45.534;12.048;2024-01-15T21:17:28;5.70;81.30
53643;DHT22;39546;45.534;12.048;2024-01-15T21:23:30;5.50;81.90
53643;DHT22;39546;45.534;12.048;2024-01-15T21:29:41;5.40;81.50
53643;DHT22;39546;45.534;12.048;2024-01-15T21:35:43;5.40;81.90
53643;DHT22;39546;45.534;12.048;2024-01-15T21:41:45;5.30;81.60
53643;DHT22;39546;45.534;12.048;2024-01-15T21:47:46;5.50;81.80
53643;DHT22;39546;45.534;12.048;2024-01-15T21:53:48;5.60;81.50
53643;DHT22;39546;45.534;12.048;2024-01-15T21:59:49;5.70;81.10
53643;DHT22;39546;45.534;12.048;2024-01-15T22:05:52;5.50;80.90
53643;DHT22;39546;45.534;12.048;2024-01-15T22:11:53;5.20;81.60
53643;DHT22;39546;45.534;12.048;2024-01-15T22:18:10;5.20;81.50
53643;DHT22;39546;45.534;12.048;2024-01-15T22:24:12;5.30;81.40
53643;DHT22;39546;45.534;12.048;2024-01-15T22:30:14;5.20;81.80
53643;DHT22;39546;45.534;12.048;2024-01-15T22:36:15;5.30;81.70
53643;DHT22;39546;45.534;12.048;2024-01-15T22:42:17;5.20;81.40
53643;DHT22;39546;45.534;12.048;2024-01-15T22:48:20;5.00;82.00
53643;DHT22;39546;45.534;12.048;2024-01-15T22:54:21;5.10;81.90
53643;DHT22;39546;45.534;12.048;2024-01-15T23:00:23;5.00;81.80
53643;DHT22;39546;45.534;12.048;2024-01-15T23:06:25;5.10;81.70
53643;DHT22;39546;45.534;12.048;2024-01-15T23:12:27;5.20;81.40
53643;DHT22;39546;45.534;12.048;2024-01-15T23:18:30;5.30;81.30
53643;DHT22;39546;45.534;12.048;2024-01-15T23:24:31;5.40;81.30
53643;DHT22;39546;45.534;12.048;2024-01-15T23:30:33;5.50;81.70
53643;DHT22;39546;45.534;12.048;2024-01-15T23:36:35;5.40;81.50
53643;DHT22;39546;45.534;12.048;2024-01-15T23:42:37;5.30;81.60
53643;DHT22;39546;45.534;12.048;2024-01-15T23:48:41;5.20;81.60
53643;DHT22;39546;45.534;12.048;2024-01-15T23:55:07;5.30;82.00
